sensor_id;sensor_type;location;lat;lon;timestamp;pressure;altitude;pressure_sealevel;temperature;humidity
33845;BME280;20145;43.118;25.694;2022-10-01T00:01:56;99774.09;;;16.57;83.13
33845;BME280;20145;43.118;25.694;2022-10-01T00:04:25;99783.03;;;16.49;83.58
33845;BME280;20145;43.118;25.694;2022-10-01T00:06:51;99779.00;;;16.38;83.09
33845;BME280;20145;43.118;25.694;2022-10-01T00:09:16;99775.84;;;16.28;84.98
33845;BME280;20145;43.118;25.694;2022-10-01T00:11:42;99774.91;;;16.31;84.62
33845;BME280;20145;43.118;25.694;2022-10-01T00:14:08;99768.06;;;16.26;84.91
33845;BME280;20145;43.118;25.694;2022-10-01T00:16:34;99777.84;;;16.18;84.26
33845;BME280;20145;43.118;25.694;2022-10-01T00:19:00;99769.28;;;16.15;84.52
33845;BME280;20145;43.118;25.694;2022-10-01T00:21:28;99784.06;;;16.14;85.00
33845;BME280;20145;43.118;25.694;2022-10-01T00:24:01;99776.25;;;16.14;84.63
33845;BME280;20145;43.118;25.694;2022-10-01T00:26:31;99774.69;;;16.09;84.85
33845;BME280;20145;43.118;25.694;2022-10-01T00:28:59;99762.06;;;15.95;86.17
33845;BME280;20145;43.118;25.694;2022-10-01T00:31:26;99762.31;;;15.86;86.61
33845;BME280;20145;43.118;25.694;2022-10-01T00:33:53;99764.28;;;15.77;86.33
33845;BME280;20145;43.118;25.694;2022-10-01T00:36:19;99755.75;;;15.72;86.99
33845;BME280;20145;43.118;25.694;2022-10-01T00:38:44;99754.91;;;15.72;87.58
33845;BME280;20145;43.118;25.694;2022-10-01T00:41:13;99758.38;;;15.71;86.81
33845;BME280;20145;43.118;25.694;2022-10-01T00:44:00;99758.50;;;15.66;86.52
33845;BME280;20145;43.118;25.694;2022-10-01T00:46:28;99764.50;;;15.70;87.45
33845;BME280;20145;43.118;25.694;2022-10-01T00:49:00;99762.72;;;15.70;87.64
33845;BME280;20145;43.118;25.694;2022-10-01T00:51:33;99766.38;;;15.63;87.81
33845;BME280;20145;43.118;25.694;2022-10-01T00:54:12;99759.38;;;15.65;88.49
33845;BME280;20145;43.118;25.694;2022-10-01T00:56:40;99762.13;;;15.59;88.32
33845;BME280;20145;43.118;25.694;2022-10-01T00:59:06;99763.97;;;15.55;87.75
33845;BME280;20145;43.118;25.694;2022-10-01T01:01:35;99769.34;;;15.49;88.83
33845;BME280;20145;43.118;25.694;2022-10-01T01:04:01;99763.41;;;15.44;88.51
33845;BME280;20145;43.118;25.694;2022-10-01T01:06:27;99769.56;;;15.40;89.00
33845;BME280;20145;43.118;25.694;2022-10-01T01:08:53;99769.56;;;15.40;89.82
33845;BME280;20145;43.118;25.694;2022-10-01T01:11:27;99763.50;;;15.41;88.79
33845;BME280;20145;43.118;25.694;2022-10-01T01:21:51;99746.34;;;15.32;88.56
33845;BME280;20145;43.118;25.694;2022-10-01T01:27:38;99747.06;;;15.39;89.80
33845;BME280;20145;43.118;25.694;2022-10-01T01:30:11;99749.63;;;15.40;89.21
33845;BME280;20145;43.118;25.694;2022-10-01T01:35:28;99742.81;;;15.35;89.39
33845;BME280;20145;43.118;25.694;2022-10-01T01:38:00;99756.06;;;15.27;89.04
33845;BME280;20145;43.118;25.694;2022-10-01T01:40:29;99742.31;;;15.22;89.81
33845;BME280;20145;43.118;25.694;2022-10-01T01:42:57;99750.03;;;15.25;90.09
33845;BME280;20145;43.118;25.694;2022-10-01T01:45:27;99751.78;;;15.25;90.34
33845;BME280;20145;43.118;25.694;2022-10-01T01:47:56;99750.03;;;15.25;90.71
33845;BME280;20145;43.118;25.694;2022-10-01T01:50:23;99736.97;;;15.27;89.88
33845;BME280;20145;43.118;25.694;2022-10-01T01:52:51;99725.97;;;15.17;90.54
33845;BME280;20145;43.118;25.694;2022-10-01T01:55:22;99757.75;;;15.28;89.86
33845;BME280;20145;43.118;25.694;2022-10-01T01:57:48;99757.66;;;15.31;91.13
33845;BME280;20145;43.118;25.694;2022-10-01T02:00:14;99763.88;;;15.26;90.28
33845;BME280;20145;43.118;25.694;2022-10-01T02:02:47;99760.44;;;15.24;90.35
33845;BME280;20145;43.118;25.694;2022-10-01T02:05:17;99773.53;;;15.21;89.88
33845;BME280;20145;43.118;25.694;2022-10-01T02:10:33;99776.22;;;15.17;89.49
33845;BME280;20145;43.118;25.694;2022-10-01T02:21:09;99772.06;;;15.10;91.71
33845;BME280;20145;43.118;25.694;2022-10-01T02:23:55;99772.06;;;15.10;90.72
33845;BME280;20145;43.118;25.694;2022-10-01T02:26:24;99776.66;;;14.99;90.78
33845;BME280;20145;43.118;25.694;2022-10-01T02:28:53;99771.69;;;14.90;92.27
33845;BME280;20145;43.118;25.694;2022-10-01T02:31:22;99767.47;;;14.86;91.79
33845;BME280;20145;43.118;25.694;2022-10-01T02:33:51;99766.75;;;14.79;91.07
33845;BME280;20145;43.118;25.694;2022-10-01T02:36:19;99755.59;;;14.74;92.05
33845;BME280;20145;43.118;25.694;2022-10-01T02:38:46;99763.38;;;14.76;93.60
33845;BME280;20145;43.118;25.694;2022-10-01T02:41:19;99749.63;;;14.70;92.47
33845;BME280;20145;43.118;25.694;2022-10-01T02:43:57;99759.09;;;14.73;92.75
33845;BME280;20145;43.118;25.694;2022-10-01T02:46:38;99753.06;;;14.72;92.59
33845;BME280;20145;43.118;25.694;2022-10-01T02:49:07;99747.25;;;14.61;93.29
33845;BME280;20145;43.118;25.694;2022-10-01T02:51:52;99758.41;;;14.66;93.72
33845;BME280;20145;43.118;25.694;2022-10-01T02:54:26;99758.34;;;14.68;92.90
33845;BME280;20145;43.118;25.694;2022-10-01T02:56:54;99756.56;;;14.70;92.86
33845;BME280;20145;43.118;25.694;2022-10-01T02:59:38;99762.63;;;14.70;92.95
33845;BME280;20145;43.118;25.694;2022-10-01T03:02:03;99762.63;;;14.70;93.16
33845;BME280;20145;43.118;25.694;2022-10-01T03:04:29;99765.22;;;14.70;93.62
33845;BME280;20145;43.118;25.694;2022-10-01T03:06:55;99743.13;;;14.53;93.28
33845;BME280;20145;43.118;25.694;2022-10-01T03:09:23;99772.22;;;14.67;93.89
33845;BME280;20145;43.118;25.694;2022-10-01T03:11:48;99772.31;;;14.64;94.16
33845;BME280;20145;43.118;25.694;2022-10-01T03:14:14;99773.28;;;14.58;92.76
33845;BME280;20145;43.118;25.694;2022-10-01T03:16:39;99779.28;;;14.62;94.58
33845;BME280;20145;43.118;25.694;2022-10-01T03:19:05;99774.91;;;14.62;94.55
33845;BME280;20145;43.118;25.694;2022-10-01T03:21:30;99783.78;;;14.54;93.29
33845;BME280;20145;43.118;25.694;2022-10-01T03:23:56;99777.78;;;14.48;94.68
33845;BME280;20145;43.118;25.694;2022-10-01T03:26:21;99775.19;;;14.50;94.60
33845;BME280;20145;43.118;25.694;2022-10-01T03:28:47;99776.03;;;14.50;95.16
33845;BME280;20145;43.118;25.694;2022-10-01T03:31:12;99769.16;;;14.48;94.31
33845;BME280;20145;43.118;25.694;2022-10-01T03:33:38;99767.38;;;14.50;94.16
33845;BME280;20145;43.118;25.694;2022-10-01T03:36:05;99755.25;;;14.50;94.94
33845;BME280;20145;43.118;25.694;2022-10-01T03:38:30;99753.47;;;14.54;93.76
33845;BME280;20145;43.118;25.694;2022-10-01T03:40:56;99757.72;;;14.58;93.62
33845;BME280;20145;43.118;25.694;2022-10-01T03:43:21;99762.91;;;14.58;94.50
33845;BME280;20145;43.118;25.694;2022-10-01T03:45:47;99757.66;;;14.60;92.93
33845;BME280;20145;43.118;25.694;2022-10-01T03:48:13;99762.84;;;14.61;92.73
33845;BME280;20145;43.118;25.694;2022-10-01T03:50:39;99759.38;;;14.61;91.86
33845;BME280;20145;43.118;25.694;2022-10-01T03:53:05;99762.09;;;14.56;92.41
33845;BME280;20145;43.118;25.694;2022-10-01T03:55:31;99759.56;;;14.53;92.65
33845;BME280;20145;43.118;25.694;2022-10-01T03:57:57;99759.56;;;14.53;93.58
33845;BME280;20145;43.118;25.694;2022-10-01T04:00:23;99777.72;;;14.51;93.99
33845;BME280;20145;43.118;25.694;2022-10-01T04:02:49;99782.00;;;14.56;93.80
33845;BME280;20145;43.118;25.694;2022-10-01T04:05:15;99789.72;;;14.59;93.49
33845;BME280;20145;43.118;25.694;2022-10-01T04:07:40;99790.66;;;14.55;93.79
33845;BME280;20145;43.118;25.694;2022-10-01T04:10:06;99789.03;;;14.49;94.02
33845;BME280;20145;43.118;25.694;2022-10-01T04:12:32;99802.84;;;14.51;93.31
33845;BME280;20145;43.118;25.694;2022-10-01T04:14:58;99808.84;;;14.55;93.67
33845;BME280;20145;43.118;25.694;2022-10-01T04:17:23;99817.47;;;14.57;94.48
33845;BME280;20145;43.118;25.694;2022-10-01T04:19:49;99807.94;;;14.57;93.32
33845;BME280;20145;43.118;25.694;2022-10-01T04:22:14;99805.38;;;14.56;94.40
33845;BME280;20145;43.118;25.694;2022-10-01T04:24:40;99801.09;;;14.51;94.02
33845;BME280;20145;43.118;25.694;2022-10-01T04:27:05;99809.75;;;14.52;92.97
33845;BME280;20145;43.118;25.694;2022-10-01T04:29:32;99812.38;;;14.50;94.07
33845;BME280;20145;43.118;25.694;2022-10-01T04:31:58;99814.91;;;14.55;93.81
33845;BME280;20145;43.118;25.694;2022-10-01T04:34:23;99805.41;;;14.54;94.59
33845;BME280;20145;43.118;25.694;2022-10-01T04:37:09;99792.47;;;14.53;94.13
33845;BME280;20145;43.118;25.694;2022-10-01T04:39:34;99798.28;;;14.62;94.75
33845;BME280;20145;43.118;25.694;2022-10-01T04:42:00;99791.34;;;14.64;93.74
33845;BME280;20145;43.118;25.694;2022-10-01T04:44:26;99798.97;;;14.72;94.85
33845;BME280;20145;43.118;25.694;2022-10-01T04:46:52;99803.16;;;14.78;95.47
33845;BME280;20145;43.118;25.694;2022-10-01T04:49:18;99801.19;;;14.87;93.89
33845;BME280;20145;43.118;25.694;2022-10-01T04:51:43;99788.84;;;14.97;94.86
33845;BME280;20145;43.118;25.694;2022-10-01T04:54:09;99793.78;;;15.08;94.39
33845;BME280;20145;43.118;25.694;2022-10-01T04:56:34;99787.34;;;15.23;93.39
33845;BME280;20145;43.118;25.694;2022-10-01T04:59:00;99784.25;;;15.43;95.87
33845;BME280;20145;43.118;25.694;2022-10-01T05:01:26;99778.41;;;15.66;95.20
33845;BME280;20145;43.118;25.694;2022-10-01T05:03:51;99779.34;;;15.97;95.65
33845;BME280;20145;43.118;25.694;2022-10-01T05:06:17;99782.22;;;16.18;95.05
33845;BME280;20145;43.118;25.694;2022-10-01T05:08:42;99778.53;;;16.25;91.28
33845;BME280;20145;43.118;25.694;2022-10-01T05:11:08;99779.81;;;16.40;91.40
33845;BME280;20145;43.118;25.694;2022-10-01T05:13:33;99779.47;;;16.52;90.95
33845;BME280;20145;43.118;25.694;2022-10-01T05:15:59;99782.59;;;16.63;89.87
33845;BME280;20145;43.118;25.694;2022-10-01T05:18:26;99778.75;;;16.75;90.03
33845;BME280;20145;43.118;25.694;2022-10-01T05:20:51;99782.50;;;16.94;89.06
33845;BME280;20145;43.118;25.694;2022-10-01T05:23:17;99788.84;;;17.14;88.33
33845;BME280;20145;43.118;25.694;2022-10-01T05:25:43;99789.09;;;17.33;88.03
33845;BME280;20145;43.118;25.694;2022-10-01T05:28:11;99797.25;;;17.49;86.44
33845;BME280;20145;43.118;25.694;2022-10-01T05:30:38;99796.84;;;17.59;85.99
33845;BME280;20145;43.118;25.694;2022-10-01T05:33:04;99798.13;;;17.73;86.60
33845;BME280;20145;43.118;25.694;2022-10-01T05:35:30;99782.13;;;17.83;86.49
33845;BME280;20145;43.118;25.694;2022-10-01T05:37:58;99785.78;;;18.03;86.29
33845;BME280;20145;43.118;25.694;2022-10-01T05:40:25;99798.34;;;18.17;84.34
33845;BME280;20145;43.118;25.694;2022-10-01T05:42:54;99798.09;;;18.23;83.00
33845;BME280;20145;43.118;25.694;2022-10-01T05:45:20;99805.78;;;18.27;82.45
33845;BME280;20145;43.118;25.694;2022-10-01T05:47:48;99800.28;;;18.35;81.49
33845;BME280;20145;43.118;25.694;2022-10-01T05:50:14;99798.34;;;18.40;81.77
33845;BME280;20145;43.118;25.694;2022-10-01T05:52:47;99802.03;;;18.57;81.20
33845;BME280;20145;43.118;25.694;2022-10-01T05:55:15;99797.56;;;18.60;81.85
33845;BME280;20145;43.118;25.694;2022-10-01T05:57:40;99803.22;;;18.71;81.07
33845;BME280;20145;43.118;25.694;2022-10-01T06:00:06;99817.69;;;18.82;80.86
33845;BME280;20145;43.118;25.694;2022-10-01T06:02:32;99814.81;;;18.88;80.16
33845;BME280;20145;43.118;25.694;2022-10-01T06:04:57;99815.16;;;19.01;80.50
33845;BME280;20145;43.118;25.694;2022-10-01T06:07:23;99806.34;;;19.03;81.25
33845;BME280;20145;43.118;25.694;2022-10-01T06:09:48;99806.53;;;19.21;80.64
33845;BME280;20145;43.118;25.694;2022-10-01T06:12:14;99807.56;;;19.37;80.14
33845;BME280;20145;43.118;25.694;2022-10-01T06:14:40;99788.94;;;19.45;80.09
33845;BME280;20145;43.118;25.694;2022-10-01T06:17:05;99782.25;;;19.58;78.06
33845;BME280;20145;43.118;25.694;2022-10-01T06:19:31;99789.84;;;19.66;76.78
33845;BME280;20145;43.118;25.694;2022-10-01T06:21:57;99813.59;;;19.81;76.57
33845;BME280;20145;43.118;25.694;2022-10-01T06:24:22;99814.94;;;19.90;75.66
33845;BME280;20145;43.118;25.694;2022-10-01T06:26:48;99803.34;;;19.96;75.95
33845;BME280;20145;43.118;25.694;2022-10-01T06:29:13;99801.84;;;20.09;76.25
33845;BME280;20145;43.118;25.694;2022-10-01T06:31:39;99802.97;;;20.24;75.07
33845;BME280;20145;43.118;25.694;2022-10-01T06:34:04;99805.38;;;20.28;75.30
33845;BME280;20145;43.118;25.694;2022-10-01T06:36:30;99814.44;;;20.40;76.45
33845;BME280;20145;43.118;25.694;2022-10-01T06:38:55;99815.69;;;20.50;75.26
33845;BME280;20145;43.118;25.694;2022-10-01T06:41:21;99826.59;;;20.62;74.46
33845;BME280;20145;43.118;25.694;2022-10-01T06:43:47;99815.88;;;20.66;74.61
33845;BME280;20145;43.118;25.694;2022-10-01T06:46:13;99807.94;;;20.68;74.82
33845;BME280;20145;43.118;25.694;2022-10-01T06:48:38;99813.38;;;20.82;74.81
33845;BME280;20145;43.118;25.694;2022-10-01T06:51:04;99807.63;;;20.93;74.65
33845;BME280;20145;43.118;25.694;2022-10-01T06:53:30;99787.13;;;21.01;73.89
33845;BME280;20145;43.118;25.694;2022-10-01T06:55:56;99801.78;;;21.23;74.75
33845;BME280;20145;43.118;25.694;2022-10-01T06:58:23;99796.25;;;21.29;75.19
33845;BME280;20145;43.118;25.694;2022-10-01T07:01:00;99789.84;;;21.34;74.62
33845;BME280;20145;43.118;25.694;2022-10-01T07:03:26;99800.59;;;21.47;74.24
33845;BME280;20145;43.118;25.694;2022-10-01T07:05:52;99795.63;;;21.58;74.16
33845;BME280;20145;43.118;25.694;2022-10-01T07:08:18;99794.69;;;21.77;73.70
33845;BME280;20145;43.118;25.694;2022-10-01T07:10:43;99791.41;;;21.89;72.42
33845;BME280;20145;43.118;25.694;2022-10-01T07:13:15;99788.34;;;22.14;71.46
33845;BME280;20145;43.118;25.694;2022-10-01T07:15:42;99796.63;;;22.40;71.16
33845;BME280;20145;43.118;25.694;2022-10-01T07:18:08;99789.59;;;22.56;69.66
33845;BME280;20145;43.118;25.694;2022-10-01T07:20:35;99795.13;;;22.67;68.67
33845;BME280;20145;43.118;25.694;2022-10-01T07:23:05;99793.75;;;22.76;67.66
33845;BME280;20145;43.118;25.694;2022-10-01T07:25:31;99787.41;;;22.94;68.00
33845;BME280;20145;43.118;25.694;2022-10-01T07:28:00;99779.63;;;23.09;66.93
33845;BME280;20145;43.118;25.694;2022-10-01T07:30:26;99783.06;;;23.25;66.60
33845;BME280;20145;43.118;25.694;2022-10-01T07:32:52;99788.97;;;23.45;66.40
33845;BME280;20145;43.118;25.694;2022-10-01T07:35:18;99788.53;;;23.67;66.27
33845;BME280;20145;43.118;25.694;2022-10-01T07:37:48;99793.53;;;23.86;65.82
33845;BME280;20145;43.118;25.694;2022-10-01T07:40:14;99775.84;;;23.88;65.19
33845;BME280;20145;43.118;25.694;2022-10-01T07:42:41;99785.94;;;23.95;65.18
33845;BME280;20145;43.118;25.694;2022-10-01T07:45:07;99777.75;;;24.00;65.89
33845;BME280;20145;43.118;25.694;2022-10-01T07:47:33;99765.88;;;24.07;65.96
33845;BME280;20145;43.118;25.694;2022-10-01T07:49:59;99767.47;;;24.10;65.82
33845;BME280;20145;43.118;25.694;2022-10-01T07:52:24;99766.72;;;24.08;65.41
33845;BME280;20145;43.118;25.694;2022-10-01T07:54:50;99769.63;;;24.17;64.68
33845;BME280;20145;43.118;25.694;2022-10-01T07:57:15;99769.13;;;24.39;65.88
33845;BME280;20145;43.118;25.694;2022-10-01T07:59:41;99771.47;;;24.58;64.93
33845;BME280;20145;43.118;25.694;2022-10-01T08:02:14;99762.41;;;24.62;65.61
33845;BME280;20145;43.118;25.694;2022-10-01T08:04:40;99753.16;;;24.69;64.52
33845;BME280;20145;43.118;25.694;2022-10-01T08:07:24;99748.59;;;24.71;63.54
33845;BME280;20145;43.118;25.694;2022-10-01T08:09:50;99742.47;;;24.71;62.36
33845;BME280;20145;43.118;25.694;2022-10-01T08:12:15;99739.00;;;24.70;62.91
33845;BME280;20145;43.118;25.694;2022-10-01T08:14:44;99727.81;;;24.80;60.89
33845;BME280;20145;43.118;25.694;2022-10-01T08:17:12;99718.06;;;24.95;61.51
33845;BME280;20145;43.118;25.694;2022-10-01T08:19:38;99721.75;;;25.05;60.06
33845;BME280;20145;43.118;25.694;2022-10-01T08:22:04;99718.72;;;25.11;58.57
33845;BME280;20145;43.118;25.694;2022-10-01T08:24:31;99720.47;;;25.25;57.66
33845;BME280;20145;43.118;25.694;2022-10-01T08:26:59;99708.44;;;25.33;58.11
33845;BME280;20145;43.118;25.694;2022-10-01T08:29:25;99722.59;;;25.45;57.12
33845;BME280;20145;43.118;25.694;2022-10-01T08:31:51;99722.69;;;25.56;57.43
33845;BME280;20145;43.118;25.694;2022-10-01T08:34:17;99722.34;;;25.74;58.60
33845;BME280;20145;43.118;25.694;2022-10-01T08:36:43;99721.19;;;25.91;57.26
33845;BME280;20145;43.118;25.694;2022-10-01T08:39:10;99729.72;;;26.07;57.12
33845;BME280;20145;43.118;25.694;2022-10-01T08:44:29;99737.41;;;26.36;55.82
33845;BME280;20145;43.118;25.694;2022-10-01T08:47:00;99738.31;;;26.47;56.61
33845;BME280;20145;43.118;25.694;2022-10-01T08:49:50;99723.13;;;26.62;55.00
33845;BME280;20145;43.118;25.694;2022-10-01T08:52:36;99714.84;;;26.67;54.23
33845;BME280;20145;43.118;25.694;2022-10-01T08:55:18;99713.41;;;26.74;55.11
33845;BME280;20145;43.118;25.694;2022-10-01T08:57:55;99719.84;;;26.83;54.20
33845;BME280;20145;43.118;25.694;2022-10-01T09:00:22;99718.81;;;26.97;54.09
33845;BME280;20145;43.118;25.694;2022-10-01T09:02:49;99720.84;;;27.17;53.64
33845;BME280;20145;43.118;25.694;2022-10-01T09:08:36;99721.72;;;27.51;50.05
33845;BME280;20145;43.118;25.694;2022-10-01T09:17:33;99704.63;;;27.67;47.99
33845;BME280;20145;43.118;25.694;2022-10-01T09:20:28;99701.63;;;27.71;46.97
33845;BME280;20145;43.118;25.694;2022-10-01T09:23:18;99694.13;;;27.76;45.69
33845;BME280;20145;43.118;25.694;2022-10-01T09:25:49;99687.91;;;27.89;45.73
33845;BME280;20145;43.118;25.694;2022-10-01T09:28:21;99683.06;;;28.05;45.80
33845;BME280;20145;43.118;25.694;2022-10-01T09:30:53;99694.56;;;28.27;44.19
33845;BME280;20145;43.118;25.694;2022-10-01T09:33:22;99686.56;;;28.60;42.65
33845;BME280;20145;43.118;25.694;2022-10-01T09:39:39;99692.25;;;29.30;41.02
33845;BME280;20145;43.118;25.694;2022-10-01T09:41:44;99690.31;;;29.63;40.38
33845;BME280;20145;43.118;25.694;2022-10-01T09:44:36;99694.25;;;29.99;38.33
33845;BME280;20145;43.118;25.694;2022-10-01T09:47:02;99692.78;;;30.26;37.27
33845;BME280;20145;43.118;25.694;2022-10-01T09:49:35;99691.56;;;30.49;38.35
33845;BME280;20145;43.118;25.694;2022-10-01T09:52:13;99690.13;;;30.64;39.23
33845;BME280;20145;43.118;25.694;2022-10-01T09:57:21;99680.34;;;30.94;35.19
33845;BME280;20145;43.118;25.694;2022-10-01T10:00:10;99675.69;;;31.06;35.63
33845;BME280;20145;43.118;25.694;2022-10-01T10:02:46;99670.16;;;31.27;36.26
33845;BME280;20145;43.118;25.694;2022-10-01T10:05:21;99665.94;;;31.44;35.81
33845;BME280;20145;43.118;25.694;2022-10-01T10:10:35;99657.72;;;31.92;36.23
33845;BME280;20145;43.118;25.694;2022-10-01T10:18:49;99646.75;;;31.95;36.87
33845;BME280;20145;43.118;25.694;2022-10-01T10:21:23;99642.25;;;31.96;36.83
33845;BME280;20145;43.118;25.694;2022-10-01T10:23:56;99647.91;;;31.93;36.76
33845;BME280;20145;43.118;25.694;2022-10-01T10:26:28;99648.31;;;31.88;36.12
33845;BME280;20145;43.118;25.694;2022-10-01T10:28:55;99657.31;;;31.87;36.89
33845;BME280;20145;43.118;25.694;2022-10-01T10:31:22;99647.16;;;31.91;36.30
33845;BME280;20145;43.118;25.694;2022-10-01T10:36:15;99664.22;;;32.08;35.88
33845;BME280;20145;43.118;25.694;2022-10-01T10:38:48;99663.41;;;32.07;34.30
33845;BME280;20145;43.118;25.694;2022-10-01T10:41:17;99661.78;;;32.14;35.67
33845;BME280;20145;43.118;25.694;2022-10-01T10:43:47;99663.50;;;32.15;36.31
33845;BME280;20145;43.118;25.694;2022-10-01T10:46:24;99661.34;;;32.19;36.74
33845;BME280;20145;43.118;25.694;2022-10-01T10:48:57;99650.88;;;32.26;36.20
33845;BME280;20145;43.118;25.694;2022-10-01T10:51:23;99648.91;;;32.28;35.25
33845;BME280;20145;43.118;25.694;2022-10-01T10:53:52;99647.94;;;32.29;35.42
33845;BME280;20145;43.118;25.694;2022-10-01T10:56:22;99652.09;;;32.31;34.01
33845;BME280;20145;43.118;25.694;2022-10-01T10:58:49;99649.28;;;32.33;33.74
33845;BME280;20145;43.118;25.694;2022-10-01T11:01:25;99653.31;;;32.37;33.77
33845;BME280;20145;43.118;25.694;2022-10-01T11:03:55;99649.59;;;32.30;34.80
33845;BME280;20145;43.118;25.694;2022-10-01T11:06:22;99637.66;;;32.06;34.70
33845;BME280;20145;43.118;25.694;2022-10-01T11:09:00;99641.72;;;31.83;34.94
33845;BME280;20145;43.118;25.694;2022-10-01T11:11:47;99642.13;;;31.60;34.71
33845;BME280;20145;43.118;25.694;2022-10-01T11:14:49;99635.06;;;31.41;36.67
33845;BME280;20145;43.118;25.694;2022-10-01T11:23:31;99642.44;;;31.00;37.85
33845;BME280;20145;43.118;25.694;2022-10-01T11:37:37;99618.63;;;30.70;39.16
33845;BME280;20145;43.118;25.694;2022-10-01T11:40:33;99613.75;;;30.55;40.16
33845;BME280;20145;43.118;25.694;2022-10-01T11:43:29;99606.47;;;30.38;39.52
33845;BME280;20145;43.118;25.694;2022-10-01T11:46:07;99612.19;;;30.23;39.64
33845;BME280;20145;43.118;25.694;2022-10-01T11:48:40;99604.47;;;30.11;40.39
33845;BME280;20145;43.118;25.694;2022-10-01T11:51:12;99605.03;;;30.05;40.59
33845;BME280;20145;43.118;25.694;2022-10-01T11:53:45;99599.81;;;30.03;39.88
33845;BME280;20145;43.118;25.694;2022-10-01T11:56:32;99592.41;;;30.07;40.03
33845;BME280;20145;43.118;25.694;2022-10-01T12:02:13;99591.19;;;30.30;39.95
33845;BME280;20145;43.118;25.694;2022-10-01T12:04:46;99592.72;;;30.42;40.13
33845;BME280;20145;43.118;25.694;2022-10-01T12:13:00;99581.06;;;30.82;39.94
33845;BME280;20145;43.118;25.694;2022-10-01T12:15:53;99582.97;;;30.90;38.93
33845;BME280;20145;43.118;25.694;2022-10-01T12:20:59;99582.44;;;30.96;39.30
33845;BME280;20145;43.118;25.694;2022-10-01T12:23:44;99571.34;;;30.91;39.74
33845;BME280;20145;43.118;25.694;2022-10-01T12:29:11;99579.91;;;30.75;38.29
33845;BME280;20145;43.118;25.694;2022-10-01T12:43:03;99575.03;;;30.61;39.88
33845;BME280;20145;43.118;25.694;2022-10-01T12:48:36;99564.66;;;30.58;40.39
33845;BME280;20145;43.118;25.694;2022-10-01T13:03:04;99564.41;;;30.32;39.97
33845;BME280;20145;43.118;25.694;2022-10-01T13:12:00;99537.06;;;29.71;41.85
33845;BME280;20145;43.118;25.694;2022-10-01T13:13:52;99526.75;;;29.47;41.78
33845;BME280;20145;43.118;25.694;2022-10-01T13:16:30;99519.72;;;29.27;40.70
33845;BME280;20145;43.118;25.694;2022-10-01T13:22:30;99517.06;;;29.37;40.96
33845;BME280;20145;43.118;25.694;2022-10-01T13:28:21;99525.19;;;29.35;42.17
33845;BME280;20145;43.118;25.694;2022-10-01T13:33:25;99501.91;;;29.18;42.07
33845;BME280;20145;43.118;25.694;2022-10-01T13:35:59;99506.69;;;29.24;41.64
33845;BME280;20145;43.118;25.694;2022-10-01T13:38:27;99492.16;;;29.38;42.46
33845;BME280;20145;43.118;25.694;2022-10-01T13:41:05;99491.19;;;29.39;42.88
33845;BME280;20145;43.118;25.694;2022-10-01T13:43:32;99461.75;;;29.21;42.83
33845;BME280;20145;43.118;25.694;2022-10-01T13:46:07;99501.63;;;29.21;41.91
33845;BME280;20145;43.118;25.694;2022-10-01T13:48:36;99501.72;;;29.09;42.97
33845;BME280;20145;43.118;25.694;2022-10-01T13:51:11;99481.09;;;28.92;43.95
33845;BME280;20145;43.118;25.694;2022-10-01T13:56:08;99485.56;;;28.61;43.94
33845;BME280;20145;43.118;25.694;2022-10-01T13:58:42;99494.84;;;28.45;43.61
33845;BME280;20145;43.118;25.694;2022-10-01T14:06:28;99485.50;;;28.30;44.42
33845;BME280;20145;43.118;25.694;2022-10-01T14:11:32;99452.28;;;28.36;44.08
33845;BME280;20145;43.118;25.694;2022-10-01T14:14:50;99464.84;;;28.34;44.78
33845;BME280;20145;43.118;25.694;2022-10-01T14:17:36;99461.53;;;28.20;46.62
33845;BME280;20145;43.118;25.694;2022-10-01T14:20:02;99453.78;;;28.08;47.25
33845;BME280;20145;43.118;25.694;2022-10-01T14:37:05;99442.84;;;27.80;47.84
33845;BME280;20145;43.118;25.694;2022-10-01T14:39:31;99410.44;;;27.65;47.17
33845;BME280;20145;43.118;25.694;2022-10-01T14:41:57;99358.81;;;27.48;48.22
33845;BME280;20145;43.118;25.694;2022-10-01T14:44:36;99323.31;;;27.40;47.32
33845;BME280;20145;43.118;25.694;2022-10-01T14:47:18;99328.03;;;27.36;48.85
33845;BME280;20145;43.118;25.694;2022-10-01T14:49:44;99332.03;;;27.30;48.13
33845;BME280;20145;43.118;25.694;2022-10-01T14:52:26;99367.94;;;27.23;48.29
33845;BME280;20145;43.118;25.694;2022-10-01T15:00:00;99346.44;;;27.05;48.07
33845;BME280;20145;43.118;25.694;2022-10-01T15:02:30;99342.81;;;27.06;47.86
33845;BME280;20145;43.118;25.694;2022-10-01T15:04:56;99347.53;;;27.03;48.39
33845;BME280;20145;43.118;25.694;2022-10-01T15:07:23;99351.63;;;26.96;48.90
33845;BME280;20145;43.118;25.694;2022-10-01T15:09:49;99333.13;;;26.84;47.79
33845;BME280;20145;43.118;25.694;2022-10-01T15:12:17;99330.97;;;26.78;48.98
33845;BME280;20145;43.118;25.694;2022-10-01T15:14:45;99332.16;;;26.74;49.09
33845;BME280;20145;43.118;25.694;2022-10-01T15:17:18;99300.81;;;26.58;49.22
33845;BME280;20145;43.118;25.694;2022-10-01T15:19:48;99300.91;;;26.68;49.47
33845;BME280;20145;43.118;25.694;2022-10-01T15:22:19;99313.44;;;26.55;48.46
33845;BME280;20145;43.118;25.694;2022-10-01T15:24:48;99323.53;;;26.38;49.80
33845;BME280;20145;43.118;25.694;2022-10-01T15:27:17;99328.81;;;26.27;49.29
33845;BME280;20145;43.118;25.694;2022-10-01T15:29:44;99319.09;;;26.16;48.95
33845;BME280;20145;43.118;25.694;2022-10-01T15:32:16;99314.66;;;26.06;48.54
33845;BME280;20145;43.118;25.694;2022-10-01T15:34:53;99317.63;;;25.90;49.89
33845;BME280;20145;43.118;25.694;2022-10-01T15:37:33;99310.03;;;25.85;50.65
33845;BME280;20145;43.118;25.694;2022-10-01T15:40:00;99308.91;;;25.76;50.66
33845;BME280;20145;43.118;25.694;2022-10-01T15:42:28;99296.50;;;25.66;51.81